Sidney, Montana
Current Conditions -  °F | °C
As of 4:55 AM on Monday 22 Dec 2014 (Local Time) from KSDY Reporting Station
Broken Clouds Broken Clouds  
Wind Chill: 17°   Ceiling: 2200
Heat Index: 28°   Visibility: 2mi
Dew Point: 25°   Wind: 15mph
Humidity: 86%   Direction: 300°WNW
Pressure: 29.54"   Gusts: NA
Location:  47.71°N, 104.16°W
Report Text: KSDY 221155Z AUTO 30013KT 2SM BKN022 M02/M04 A2954 RMK AO1 60001 70001 10020 21020 52020
Loading
Personal Weather Stations






























Interactive Weather Map New forecast layout! Learn more

10-Day Weather Forecast

Advertisements
Track Severe Weather on mobile